createdAt,value
2022-12-25T00:00:05.318Z,56.00
2022-12-25T00:05:04.442Z,46.40
2022-12-25T00:10:03.981Z,42.50
2022-12-25T00:15:03.968Z,44.30
2022-12-25T00:20:03.700Z,42.60
2022-12-25T00:25:03.432Z,46.70
2022-12-25T00:30:03.200Z,39.00
2022-12-25T00:35:03.711Z,42.10
2022-12-25T00:40:03.761Z,44.80
2022-12-25T00:45:04.826Z,45.40
2022-12-25T00:50:04.000Z,40.00
2022-12-25T00:55:03.289Z,42.90
2022-12-25T01:00:03.385Z,40.30
2022-12-25T01:05:04.825Z,49.60
2022-12-25T01:10:13.261Z,38.50
2022-12-25T01:15:05.307Z,42.70
2022-12-25T01:20:04.031Z,37.50
2022-12-25T01:25:03.664Z,42.90
2022-12-25T01:30:03.597Z,40.30
2022-12-25T01:35:03.634Z,33.30
2022-12-25T01:40:04.083Z,32.60
2022-12-25T01:45:23.307Z,33.20
2022-12-25T01:50:04.466Z,28.30
2022-12-25T01:55:03.808Z,34.30
2022-12-25T02:00:05.183Z,29.60
2022-12-25T02:05:07.573Z,29.10
2022-12-25T02:10:03.974Z,32.90
2022-12-25T02:15:06.802Z,30.10
2022-12-25T02:20:21.420Z,26.60
2022-12-25T02:25:19.095Z,27.30
2022-12-25T02:30:05.481Z,28.90
2022-12-25T02:35:09.843Z,26.40
2022-12-25T02:40:10.895Z,27.80
2022-12-25T02:45:13.403Z,35.60
2022-12-25T02:50:15.300Z,30.20
2022-12-25T02:55:18.112Z,33.40
2022-12-25T03:00:15.059Z,31.10
2022-12-25T03:05:19.446Z,32.00
2022-12-25T03:10:16.934Z,32.90
2022-12-25T03:15:15.522Z,31.70
2022-12-25T03:20:14.471Z,32.20
2022-12-25T03:25:13.124Z,32.80
2022-12-25T03:30:13.244Z,35.60
2022-12-25T03:35:19.907Z,34.70
2022-12-25T03:40:22.435Z,36.40
2022-12-25T03:45:20.668Z,37.70
2022-12-25T03:50:17.499Z,35.80
2022-12-25T03:55:18.009Z,39.60
2022-12-25T04:00:13.470Z,42.40
2022-12-25T04:05:13.345Z,37.90
2022-12-25T04:10:13.483Z,42.30
2022-12-25T04:15:12.906Z,42.80
2022-12-25T04:20:13.288Z,37.10
2022-12-25T04:25:12.933Z,43.50
2022-12-25T04:30:13.364Z,42.50
2022-12-25T04:35:13.102Z,42.90
2022-12-25T04:40:03.806Z,38.30
2022-12-25T04:45:03.376Z,42.70
2022-12-25T04:50:03.760Z,40.40
2022-12-25T04:55:04.182Z,45.20
2022-12-25T05:00:04.524Z,37.70
2022-12-25T05:05:03.716Z,44.20
2022-12-25T05:10:03.056Z,39.90
2022-12-25T05:15:03.048Z,44.40
2022-12-25T05:20:04.483Z,52.90
2022-12-25T05:25:02.887Z,48.30
2022-12-25T05:30:03.199Z,49.80
2022-12-25T05:35:03.488Z,50.80
2022-12-25T05:40:03.673Z,54.40
2022-12-25T05:45:03.172Z,53.20
2022-12-25T05:50:04.014Z,51.90
2022-12-25T05:55:03.195Z,58.30
2022-12-25T06:00:03.551Z,58.50
2022-12-25T06:05:03.276Z,54.80
2022-12-25T06:10:03.091Z,53.30
2022-12-25T06:15:03.178Z,47.60
2022-12-25T06:20:03.751Z,47.10
2022-12-25T06:25:02.811Z,42.60
2022-12-25T06:30:03.934Z,46.50
2022-12-25T06:35:03.211Z,53.20
2022-12-25T06:40:03.428Z,47.30
2022-12-25T06:45:02.938Z,48.30
2022-12-25T06:50:04.765Z,48.20
2022-12-25T06:55:02.788Z,44.30
2022-12-25T07:00:03.484Z,53.30
2022-12-25T07:05:03.336Z,49.10
2022-12-25T07:10:02.817Z,57.80
2022-12-25T07:15:02.879Z,57.80
2022-12-25T07:20:03.509Z,47.80
2022-12-25T07:25:02.775Z,47.20
2022-12-25T07:30:03.854Z,53.10
2022-12-25T07:35:03.716Z,63.00
2022-12-25T07:40:03.550Z,53.90
2022-12-25T07:45:02.955Z,65.90
2022-12-25T07:50:03.294Z,62.80
2022-12-25T07:55:02.793Z,63.10
2022-12-25T08:00:03.706Z,57.60
2022-12-25T08:05:03.049Z,53.70
2022-12-25T08:10:03.341Z,54.40
2022-12-25T08:15:03.004Z,55.50
2022-12-25T08:20:03.396Z,57.90
2022-12-25T08:25:03.271Z,69.30
2022-12-25T08:30:03.168Z,54.00
2022-12-25T08:35:02.855Z,66.60
2022-12-25T08:40:03.084Z,53.50
2022-12-25T08:45:03.120Z,64.80
2022-12-25T08:50:02.876Z,53.60
2022-12-25T08:55:03.343Z,56.80
2022-12-25T09:00:03.768Z,52.00
2022-12-25T09:05:02.731Z,56.40
2022-12-25T09:10:03.052Z,52.90
2022-12-25T09:15:03.778Z,58.40
2022-12-25T09:20:02.884Z,63.10
2022-12-25T09:25:02.869Z,75.60
2022-12-25T09:30:03.881Z,68.40
2022-12-25T09:35:02.855Z,72.20
2022-12-25T09:40:03.443Z,63.10
2022-12-25T09:45:09.085Z,58.30
2022-12-25T09:50:09.883Z,70.90
2022-12-25T09:55:11.503Z,65.40
2022-12-25T10:00:03.993Z,58.60
2022-12-25T10:05:14.409Z,55.70
2022-12-25T10:10:19.576Z,58.70
2022-12-25T10:15:18.357Z,58.80
2022-12-25T10:20:13.205Z,50.80
2022-12-25T10:25:05.973Z,49.30
2022-12-25T10:30:13.449Z,47.00
2022-12-25T10:35:03.526Z,48.80
2022-12-25T10:40:22.360Z,47.90
2022-12-25T10:45:06.893Z,46.10
2022-12-25T10:50:09.583Z,51.00
2022-12-25T10:55:10.849Z,47.90
2022-12-25T11:00:04.891Z,46.60
2022-12-25T11:05:06.064Z,42.70
2022-12-25T11:10:14.186Z,38.80
2022-12-25T11:15:06.549Z,38.80
2022-12-25T11:20:12.689Z,38.60
2022-12-25T11:25:11.363Z,33.80
2022-12-25T11:30:04.089Z,33.80
2022-12-25T11:35:10.528Z,33.60
2022-12-25T11:40:03.908Z,33.80
2022-12-25T11:45:09.998Z,33.50
2022-12-25T11:50:06.597Z,31.20
2022-12-25T11:55:07.377Z,34.10
2022-12-25T12:00:05.725Z,27.90
2022-12-25T12:05:12.439Z,28.40
2022-12-25T12:10:12.358Z,29.30
2022-12-25T12:15:13.350Z,27.00
2022-12-25T12:20:09.820Z,26.90
2022-12-25T12:25:06.255Z,28.50
2022-12-25T12:30:05.079Z,30.50
2022-12-25T12:35:13.041Z,32.90
2022-12-25T12:40:04.229Z,27.80
2022-12-25T12:45:08.414Z,29.50
2022-12-25T12:50:02.911Z,32.40
2022-12-25T12:55:07.105Z,30.80
2022-12-25T13:00:10.530Z,32.00
2022-12-25T13:05:04.891Z,31.60
2022-12-25T13:10:12.754Z,34.60
2022-12-25T13:15:10.341Z,35.50
2022-12-25T13:20:04.282Z,35.60
2022-12-25T13:25:04.970Z,39.60
2022-12-25T13:30:12.352Z,36.20
2022-12-25T13:35:02.662Z,35.90
2022-12-25T13:40:06.409Z,34.40
2022-12-25T13:45:05.981Z,35.30
2022-12-25T13:50:14.673Z,40.50
2022-12-25T13:55:09.785Z,40.10
2022-12-25T14:00:07.212Z,39.50
2022-12-25T14:05:03.342Z,39.00
2022-12-25T14:10:03.158Z,42.00
2022-12-25T14:15:03.960Z,38.10
2022-12-25T14:20:08.411Z,38.40
2022-12-25T14:25:02.631Z,37.40
2022-12-25T14:30:03.132Z,40.60
2022-12-25T14:35:02.557Z,41.70
2022-12-25T14:40:05.693Z,40.70
2022-12-25T14:45:06.003Z,39.40
2022-12-25T14:50:12.203Z,41.40
2022-12-25T14:55:05.833Z,47.20
2022-12-25T15:00:06.964Z,50.00
2022-12-25T15:05:02.373Z,50.00
2022-12-25T15:10:47.171Z,46.10
2022-12-25T15:15:02.836Z,54.20
2022-12-25T15:20:03.229Z,54.70
2022-12-25T15:25:02.872Z,59.40
2022-12-25T15:30:14.040Z,55.50
2022-12-25T15:35:02.916Z,59.00
2022-12-25T15:40:02.773Z,61.30
2022-12-25T15:45:02.897Z,67.60
2022-12-25T15:50:02.382Z,63.20
2022-12-25T15:55:02.374Z,66.00
2022-12-25T16:00:03.023Z,71.70
2022-12-25T16:05:09.963Z,74.80
2022-12-25T16:10:02.426Z,81.50
2022-12-25T16:15:03.339Z,83.90
2022-12-25T16:20:02.815Z,96.10
2022-12-25T16:25:02.848Z,94.30
2022-12-25T16:30:03.263Z,106.00
2022-12-25T16:35:02.545Z,99.00
2022-12-25T16:40:02.771Z,108.10
2022-12-25T16:45:03.993Z,103.80
2022-12-25T16:50:04.767Z,116.10
2022-12-25T16:55:03.752Z,114.60
2022-12-25T17:00:03.794Z,114.90
2022-12-25T17:05:02.229Z,120.20
2022-12-25T17:10:03.766Z,119.30
2022-12-25T17:15:03.594Z,131.50
2022-12-25T17:20:03.652Z,125.40
2022-12-25T17:25:02.233Z,120.10
2022-12-25T17:30:02.851Z,124.80
2022-12-25T17:35:02.479Z,138.10
2022-12-25T17:40:02.792Z,124.70
2022-12-25T17:45:02.694Z,123.80
2022-12-25T17:50:02.751Z,137.80
2022-12-25T17:55:03.109Z,125.80
2022-12-25T18:00:03.293Z,117.50
2022-12-25T18:05:02.256Z,109.30
2022-12-25T18:10:02.699Z,105.10
2022-12-25T18:15:02.872Z,102.30
2022-12-25T18:20:02.884Z,110.80
2022-12-25T18:25:02.411Z,121.30
2022-12-25T18:30:02.969Z,117.30
2022-12-25T18:35:02.423Z,122.30
2022-12-25T18:40:03.105Z,113.80
2022-12-25T18:45:03.396Z,100.50
2022-12-25T18:50:02.648Z,101.80
2022-12-25T18:55:02.539Z,109.70
2022-12-25T19:00:03.650Z,105.00
2022-12-25T19:05:02.524Z,95.10
2022-12-25T19:10:02.545Z,95.30
2022-12-25T19:15:02.695Z,106.80
2022-12-25T19:20:04.620Z,97.10
2022-12-25T19:25:02.441Z,91.80
2022-12-25T19:30:02.893Z,107.90
2022-12-25T19:35:03.535Z,95.40
2022-12-25T19:40:03.060Z,86.80
2022-12-25T19:45:02.614Z,103.10
2022-12-25T19:50:02.856Z,99.50
2022-12-25T19:55:02.136Z,102.60
2022-12-25T20:00:03.499Z,93.00
2022-12-25T20:05:02.687Z,95.50
2022-12-25T20:10:02.291Z,88.20
2022-12-25T20:15:02.766Z,93.10
2022-12-25T20:20:02.147Z,77.50
2022-12-25T20:25:02.777Z,67.60
2022-12-25T20:30:02.576Z,86.80
2022-12-25T20:35:02.095Z,57.90
2022-12-25T20:40:02.060Z,70.40
2022-12-25T20:45:02.788Z,73.30
2022-12-25T20:50:02.270Z,62.10
2022-12-25T20:55:02.594Z,90.60
2022-12-25T21:00:04.071Z,115.40
2022-12-25T21:05:02.140Z,121.40
2022-12-25T21:10:02.956Z,147.30
2022-12-25T21:15:02.598Z,93.20
2022-12-25T21:20:02.431Z,84.20
2022-12-25T21:25:02.471Z,103.60
2022-12-25T21:30:14.971Z,117.00
2022-12-25T21:35:02.041Z,98.50
2022-12-25T21:40:02.321Z,103.70
2022-12-25T21:45:02.446Z,100.80
2022-12-25T21:50:11.961Z,100.80
2022-12-25T21:55:02.275Z,104.10
2022-12-25T22:00:04.073Z,93.10
2022-12-25T22:05:02.440Z,112.60
2022-12-25T22:10:02.122Z,96.30
2022-12-25T22:15:05.454Z,90.00
2022-12-25T22:20:02.811Z,85.50
2022-12-25T22:25:04.138Z,80.10
2022-12-25T22:30:02.886Z,79.50
2022-12-25T22:35:02.653Z,75.90
2022-12-25T22:40:03.063Z,72.60
2022-12-25T22:45:03.093Z,72.50
2022-12-25T22:50:02.291Z,71.80
2022-12-25T22:55:03.318Z,74.70
2022-12-25T23:00:03.944Z,74.90
2022-12-25T23:05:02.378Z,68.80
2022-12-25T23:10:02.780Z,66.50
2022-12-25T23:15:02.892Z,60.40
2022-12-25T23:20:13.089Z,49.40
2022-12-25T23:25:12.026Z,51.20
2022-12-25T23:30:04.108Z,50.10
2022-12-25T23:35:02.844Z,47.90
2022-12-25T23:40:02.540Z,45.40
2022-12-25T23:45:02.250Z,53.40
2022-12-25T23:50:02.017Z,51.60
2022-12-25T23:55:01.823Z,55.40
